createdAt,value
2018-08-28T00:00:55.147Z,20.35
2018-08-28T00:01:55.155Z,20.40
2018-08-28T00:02:55.124Z,20.38
2018-08-28T00:03:55.112Z,20.42
2018-08-28T00:04:55.105Z,20.46
2018-08-28T00:05:55.090Z,20.51
2018-08-28T00:06:55.097Z,20.50
2018-08-28T00:07:55.070Z,20.44
2018-08-28T00:08:55.058Z,20.56
2018-08-28T00:09:55.047Z,20.46
2018-08-28T00:10:55.039Z,20.53
2018-08-28T00:11:55.042Z,20.46
2018-08-28T00:12:55.027Z,20.51
2018-08-28T00:13:55.004Z,20.53
2018-08-28T00:14:54.994Z,20.48
2018-08-28T00:15:54.983Z,20.44
2018-08-28T00:16:56.986Z,20.58
2018-08-28T00:17:57.083Z,20.56
2018-08-28T00:18:54.969Z,20.58
2018-08-28T00:19:57.097Z,20.57
2018-08-28T00:20:54.932Z,20.58
2018-08-28T00:21:54.944Z,20.48
2018-08-28T00:22:54.908Z,20.51
2018-08-28T00:23:55.473Z,20.48
2018-08-28T00:24:54.890Z,20.56
2018-08-28T00:25:54.874Z,20.42
2018-08-28T00:26:54.883Z,20.46
2018-08-28T00:27:54.894Z,20.46
2018-08-28T00:28:54.849Z,20.46
2018-08-28T00:29:54.842Z,20.50
2018-08-28T00:30:54.822Z,20.56
2018-08-28T00:31:54.825Z,20.44
2018-08-28T00:32:54.798Z,20.50
2018-08-28T00:33:54.809Z,20.56
2018-08-28T00:34:54.784Z,20.50
2018-08-28T00:35:54.768Z,20.51
2018-08-28T00:36:54.772Z,20.53
2018-08-28T00:37:54.746Z,20.57
2018-08-28T00:38:54.735Z,20.64
2018-08-28T00:39:54.723Z,20.48
2018-08-28T00:40:54.722Z,20.61
2018-08-28T00:41:54.735Z,20.60
2018-08-28T00:42:54.699Z,20.60
2018-08-28T00:43:54.681Z,20.63
2018-08-28T00:44:54.672Z,20.64
2018-08-28T00:45:54.665Z,20.66
2018-08-28T00:46:54.668Z,20.64
2018-08-28T00:47:54.642Z,20.60
2018-08-28T00:48:54.627Z,20.63
2018-08-28T00:49:54.616Z,20.64
2018-08-28T00:50:54.613Z,20.61
2018-08-28T00:51:54.622Z,20.60
2018-08-28T00:52:54.584Z,20.60
2018-08-28T00:53:54.595Z,20.63
2018-08-28T00:54:54.564Z,20.63
2018-08-28T00:55:54.553Z,20.60
2018-08-28T00:56:54.569Z,20.68
2018-08-28T00:57:54.538Z,20.68
2018-08-28T00:58:54.521Z,20.61
2018-08-28T00:59:54.511Z,20.64
2018-08-28T01:00:54.500Z,20.60
2018-08-28T01:01:54.506Z,20.66
2018-08-28T01:02:54.482Z,20.64
2018-08-28T01:03:54.479Z,20.64
2018-08-28T01:04:54.456Z,20.68
2018-08-28T01:05:54.444Z,20.68
2018-08-28T01:06:54.458Z,20.64
2018-08-28T01:07:54.435Z,20.69
2018-08-28T01:08:54.421Z,20.63
2018-08-28T01:09:54.403Z,20.68
2018-08-28T01:10:54.393Z,20.66
2018-08-28T01:11:54.400Z,20.66
2018-08-28T01:12:54.371Z,20.66
2018-08-28T01:13:54.363Z,20.63
2018-08-28T01:14:54.351Z,20.68
2018-08-28T01:15:54.340Z,20.66
2018-08-28T01:16:54.353Z,20.71
2018-08-28T01:17:54.320Z,20.69
2018-08-28T01:18:54.308Z,20.63
2018-08-28T01:19:54.300Z,20.69
2018-08-28T01:20:54.290Z,20.66
2018-08-28T01:21:54.276Z,20.68
2018-08-28T01:22:54.282Z,20.76
2018-08-28T01:23:54.255Z,20.71
2018-08-28T01:24:54.248Z,20.66
2018-08-28T01:25:54.239Z,20.63
2018-08-28T01:26:54.223Z,20.66
2018-08-28T01:27:54.229Z,20.63
2018-08-28T01:28:54.205Z,20.64
2018-08-28T01:29:54.191Z,20.61
2018-08-28T01:30:54.179Z,20.63
2018-08-28T01:31:54.176Z,20.63
2018-08-28T01:32:54.180Z,20.66
2018-08-28T01:33:54.148Z,20.64
2018-08-28T01:34:54.138Z,20.61
2018-08-28T01:35:54.126Z,20.71
2018-08-28T01:36:54.116Z,20.64
2018-08-28T01:37:54.131Z,20.66
2018-08-28T01:38:54.094Z,20.66
2018-08-28T01:39:54.085Z,20.68
2018-08-28T01:40:54.081Z,20.66
2018-08-28T01:41:54.067Z,20.64
2018-08-28T01:42:54.081Z,20.75
2018-08-28T01:43:54.053Z,20.72
2018-08-28T01:44:54.034Z,20.68
2018-08-28T01:45:54.020Z,20.64
2018-08-28T01:46:54.010Z,20.63
2018-08-28T01:47:54.019Z,20.64
2018-08-28T01:48:53.998Z,20.69
2018-08-28T01:49:53.979Z,20.64
2018-08-28T01:50:53.970Z,20.66
2018-08-28T01:51:53.958Z,20.64
2018-08-28T01:52:53.974Z,20.64
2018-08-28T01:53:53.935Z,20.61
2018-08-28T01:54:53.930Z,20.48
2018-08-28T01:55:53.914Z,20.58
2018-08-28T01:56:53.905Z,20.63
2018-08-28T01:57:53.909Z,20.44
2018-08-28T01:58:53.881Z,20.44
2018-08-28T01:59:53.875Z,20.46
2018-08-28T02:00:53.871Z,20.41
2018-08-28T02:01:53.850Z,20.42
2018-08-28T02:02:53.855Z,20.42
2018-08-28T02:03:53.832Z,20.42
2018-08-28T02:04:53.820Z,20.37
2018-08-28T02:05:53.807Z,20.41
2018-08-28T02:06:53.801Z,20.38
2018-08-28T02:07:53.803Z,20.42
2018-08-28T02:08:53.777Z,20.42
2018-08-28T02:09:53.766Z,20.38
2018-08-28T02:10:53.757Z,20.44
2018-08-28T02:11:53.748Z,20.40
2018-08-28T02:12:53.753Z,20.35
2018-08-28T02:13:53.724Z,20.38
2018-08-28T02:14:53.711Z,20.35
2018-08-28T02:15:53.702Z,20.40
2018-08-28T02:16:53.695Z,20.38
2018-08-28T02:17:53.704Z,20.35
2018-08-28T02:18:53.670Z,20.34
2018-08-28T02:19:53.662Z,20.31
2018-08-28T02:20:53.649Z,20.33
2018-08-28T02:21:53.649Z,20.37
2018-08-28T02:22:53.642Z,20.34
2018-08-28T02:23:53.615Z,20.41
2018-08-28T02:24:53.606Z,20.37
2018-08-28T02:25:53.595Z,20.38
2018-08-28T02:26:53.585Z,20.33
2018-08-28T02:27:53.597Z,20.33
2018-08-28T02:28:53.575Z,20.26
2018-08-28T02:29:53.554Z,20.30
2018-08-28T02:30:53.544Z,20.31
2018-08-28T02:31:53.533Z,20.30
2018-08-28T02:32:53.537Z,20.27
2018-08-28T02:33:53.512Z,20.30
2018-08-28T02:34:53.516Z,20.26
2018-08-28T02:35:53.492Z,20.26
2018-08-28T02:36:53.478Z,20.25
2018-08-28T02:37:53.483Z,20.17
2018-08-28T02:38:53.471Z,20.19
2018-08-28T02:39:53.451Z,20.25
2018-08-28T02:40:53.435Z,20.15
2018-08-28T02:41:53.430Z,20.16
2018-08-28T02:42:53.445Z,20.20
2018-08-28T02:43:53.405Z,20.13
2018-08-28T02:44:53.394Z,20.16
2018-08-28T02:45:53.385Z,20.13
2018-08-28T02:46:53.370Z,20.15
2018-08-28T02:47:53.361Z,20.13
2018-08-28T02:48:53.367Z,20.10
2018-08-28T02:49:53.338Z,20.05
2018-08-28T02:50:53.330Z,20.05
2018-08-28T02:51:53.322Z,20.10
2018-08-28T02:52:53.306Z,20.10
2018-08-28T02:53:53.311Z,20.08
2018-08-28T02:54:53.285Z,20.04
2018-08-28T02:55:53.291Z,20.07
2018-08-28T02:56:53.273Z,19.97
2018-08-28T02:57:53.252Z,19.90
2018-08-28T02:58:53.257Z,19.89
2018-08-28T02:59:53.231Z,19.92
2018-08-28T03:00:53.221Z,19.92
2018-08-28T03:01:53.211Z,19.82
2018-08-28T03:02:53.293Z,19.95
2018-08-28T03:03:53.208Z,19.94
2018-08-28T03:04:53.176Z,19.90
2018-08-28T03:05:53.166Z,19.78
2018-08-28T03:06:53.157Z,19.83
2018-08-28T03:07:53.151Z,19.78
2018-08-28T03:08:53.157Z,19.72
2018-08-28T03:09:53.124Z,19.90
2018-08-28T03:10:53.112Z,19.89
2018-08-28T03:11:53.102Z,19.87
2018-08-28T03:12:53.093Z,19.89
2018-08-28T03:13:53.096Z,19.94
2018-08-28T03:14:53.068Z,19.90
2018-08-28T03:15:53.093Z,19.92
2018-08-28T03:16:53.047Z,19.98
2018-08-28T03:17:53.036Z,19.94
2018-08-28T03:18:53.039Z,19.92
2018-08-28T03:19:53.025Z,20.01
2018-08-28T03:20:53.003Z,19.95
2018-08-28T03:21:52.992Z,20.01
2018-08-28T03:22:52.980Z,20.07
2018-08-28T03:23:52.987Z,20.05
2018-08-28T03:24:52.958Z,20.05
2018-08-28T03:25:52.948Z,20.07
2018-08-28T03:26:52.939Z,19.98
2018-08-28T03:27:52.927Z,20.07
2018-08-28T03:28:54.909Z,20.02
2018-08-28T03:29:52.912Z,20.07
2018-08-28T03:30:52.900Z,20.05
2018-08-28T03:31:52.885Z,20.04
2018-08-28T03:32:52.875Z,20.00
2018-08-28T03:33:52.878Z,20.01
2018-08-28T03:34:52.851Z,20.04
2018-08-28T03:35:52.842Z,20.05
2018-08-28T03:36:52.827Z,20.04
2018-08-28T03:37:52.820Z,20.04
2018-08-28T03:38:52.824Z,20.00
2018-08-28T03:39:52.795Z,19.92
2018-08-28T03:40:52.787Z,20.00
2018-08-28T03:41:52.776Z,19.90
2018-08-28T03:42:52.763Z,19.92
2018-08-28T03:43:52.766Z,19.94
2018-08-28T03:44:52.841Z,20.05
2018-08-28T03:45:52.732Z,20.00
2018-08-28T03:46:52.719Z,20.05
2018-08-28T03:47:52.719Z,19.95
2018-08-28T03:48:52.730Z,19.94
2018-08-28T03:49:52.685Z,19.95
2018-08-28T03:50:52.673Z,19.95
2018-08-28T03:51:52.670Z,19.89
2018-08-28T03:52:52.652Z,19.87
2018-08-28T03:53:52.706Z,19.97
2018-08-28T03:54:52.630Z,19.92
2018-08-28T03:55:52.625Z,19.92
2018-08-28T03:56:52.609Z,19.90
2018-08-28T03:57:52.599Z,19.92
2018-08-28T03:58:52.604Z,19.94
2018-08-28T03:59:52.581Z,20.00
2018-08-28T04:00:52.566Z,19.98
2018-08-28T04:01:52.560Z,19.98
2018-08-28T04:02:52.548Z,19.97
2018-08-28T04:03:52.565Z,19.98
2018-08-28T04:04:52.522Z,20.02
2018-08-28T04:05:52.511Z,20.00
2018-08-28T04:06:52.502Z,19.98
2018-08-28T04:07:52.490Z,19.97
2018-08-28T04:08:52.511Z,19.97
2018-08-28T04:09:52.470Z,19.90
2018-08-28T04:10:52.458Z,19.95
2018-08-28T04:11:52.447Z,19.90
2018-08-28T04:12:52.436Z,19.89
2018-08-28T04:13:52.423Z,19.90
2018-08-28T04:14:52.444Z,19.89
2018-08-28T04:15:52.410Z,19.89
2018-08-28T04:16:52.393Z,19.87
2018-08-28T04:17:52.383Z,19.83
2018-08-28T04:18:52.375Z,19.80
2018-08-28T04:19:52.376Z,19.79
2018-08-28T04:20:52.348Z,19.78
2018-08-28T04:21:52.337Z,19.76
2018-08-28T04:22:52.339Z,19.83
2018-08-28T04:23:52.315Z,19.89
2018-08-28T04:24:52.325Z,19.89
2018-08-28T04:25:52.315Z,19.92
2018-08-28T04:26:52.291Z,19.94
2018-08-28T04:27:52.273Z,19.95
2018-08-28T04:28:52.262Z,19.89
2018-08-28T04:29:52.265Z,19.90
2018-08-28T04:30:52.254Z,19.92
2018-08-28T04:31:52.233Z,19.92
2018-08-28T04:32:52.216Z,19.90
2018-08-28T04:33:52.207Z,19.94
2018-08-28T04:34:52.213Z,19.90
2018-08-28T04:35:52.185Z,19.92
2018-08-28T04:36:52.172Z,19.90
2018-08-28T04:37:52.168Z,19.94
2018-08-28T04:38:52.215Z,19.89
2018-08-28T04:39:52.187Z,19.90
2018-08-28T04:40:52.133Z,19.89
2018-08-28T04:41:52.167Z,19.89
2018-08-28T04:42:52.109Z,19.90
2018-08-28T04:43:52.104Z,19.87
2018-08-28T04:44:52.118Z,19.95
2018-08-28T04:45:52.081Z,19.95
2018-08-28T04:46:52.076Z,20.04
2018-08-28T04:47:52.070Z,20.04
2018-08-28T04:48:52.091Z,19.98
2018-08-28T04:49:52.049Z,19.97
2018-08-28T04:50:52.021Z,20.01
2018-08-28T04:51:52.014Z,20.04
2018-08-28T04:52:52.034Z,20.01
2018-08-28T04:53:52.001Z,20.04
2018-08-28T04:54:52.030Z,20.04
2018-08-28T04:55:51.999Z,20.04
2018-08-28T04:56:51.962Z,20.04
2018-08-28T04:57:51.948Z,20.08
2018-08-28T04:58:51.949Z,20.05
2018-08-28T04:59:51.940Z,20.07
2018-08-28T05:00:52.001Z,20.10
2018-08-28T05:01:51.901Z,20.13
2018-08-28T05:02:51.953Z,20.07
2018-08-28T05:03:51.892Z,20.15
2018-08-28T05:04:51.888Z,20.15
2018-08-28T05:05:51.878Z,20.05
2018-08-28T05:06:51.847Z,20.08
2018-08-28T05:07:51.836Z,20.10
2018-08-28T05:08:51.853Z,20.04
2018-08-28T05:09:51.833Z,20.08
2018-08-28T05:10:51.804Z,20.10
2018-08-28T05:11:51.813Z,20.12
2018-08-28T05:12:51.783Z,20.13
2018-08-28T05:13:51.782Z,20.16
2018-08-28T05:14:51.779Z,20.16
2018-08-28T05:15:51.816Z,20.15
2018-08-28T05:16:51.746Z,20.16
2018-08-28T05:17:51.727Z,20.19
2018-08-28T05:18:51.717Z,20.16
2018-08-28T05:19:51.725Z,20.15
2018-08-28T05:20:51.702Z,20.19
2018-08-28T05:21:51.731Z,20.13
2018-08-28T05:22:51.688Z,20.19
2018-08-28T05:23:51.694Z,20.12
2018-08-28T05:24:51.672Z,20.30
2018-08-28T05:25:51.646Z,20.26
2018-08-28T05:26:51.633Z,20.26
2018-08-28T05:27:51.622Z,20.15
2018-08-28T05:28:51.614Z,20.22
2018-08-28T05:29:51.626Z,20.33
2018-08-28T05:30:51.589Z,20.26
2018-08-28T05:31:51.580Z,20.25
2018-08-28T05:32:51.622Z,20.30
2018-08-28T05:33:51.561Z,20.31
2018-08-28T05:34:51.562Z,20.26
2018-08-28T05:35:51.536Z,20.30
2018-08-28T05:36:51.525Z,20.26
2018-08-28T05:37:51.587Z,20.31
2018-08-28T05:38:51.506Z,20.34
2018-08-28T05:39:51.497Z,20.33
2018-08-28T05:40:51.507Z,20.25
2018-08-28T05:41:51.472Z,20.37
2018-08-28T05:42:51.461Z,20.35
2018-08-28T05:43:51.450Z,20.23
2018-08-28T05:44:51.440Z,20.35
2018-08-28T05:45:51.451Z,20.31
2018-08-28T05:46:51.420Z,20.31
2018-08-28T05:47:51.410Z,20.40
2018-08-28T05:48:51.398Z,20.42
2018-08-28T05:49:51.392Z,20.46
2018-08-28T05:50:51.391Z,20.37
2018-08-28T05:51:51.364Z,20.42
2018-08-28T05:52:51.354Z,20.44
2018-08-28T05:53:51.341Z,20.44
2018-08-28T05:54:51.365Z,20.40
2018-08-28T05:55:51.378Z,20.44
2018-08-28T05:56:51.311Z,20.46
2018-08-28T05:57:51.316Z,20.46
2018-08-28T05:58:51.289Z,20.50
2018-08-28T05:59:51.276Z,20.51
2018-08-28T06:00:51.283Z,20.50
2018-08-28T06:01:51.257Z,20.42
2018-08-28T06:02:51.298Z,20.51
2018-08-28T06:03:51.233Z,20.50
2018-08-28T06:04:51.223Z,20.50
2018-08-28T06:05:51.225Z,20.42
2018-08-28T06:06:51.200Z,20.50
2018-08-28T06:07:51.195Z,20.54
2018-08-28T06:08:51.237Z,20.61
2018-08-28T06:09:51.171Z,20.61
2018-08-28T06:10:51.175Z,20.60
2018-08-28T06:11:51.149Z,20.61
2018-08-28T06:12:51.138Z,20.58
2018-08-28T06:13:51.129Z,20.64
2018-08-28T06:14:51.150Z,20.64
2018-08-28T06:15:51.123Z,20.68
2018-08-28T06:16:51.097Z,20.63
2018-08-28T06:17:51.084Z,20.63
2018-08-28T06:18:51.092Z,20.61
2018-08-28T06:19:51.072Z,20.63
2018-08-28T06:20:51.077Z,20.61
2018-08-28T06:21:51.064Z,20.61
2018-08-28T06:22:51.079Z,20.66
2018-08-28T06:23:51.037Z,20.64
2018-08-28T06:24:51.011Z,20.69
2018-08-28T06:25:51.026Z,20.64
2018-08-28T06:26:50.991Z,20.66
2018-08-28T06:27:50.980Z,20.63
2018-08-28T06:28:50.968Z,20.61
2018-08-28T06:29:50.959Z,20.71
2018-08-28T06:30:50.972Z,20.73
2018-08-28T06:31:50.938Z,20.78
2018-08-28T06:32:50.927Z,20.71
2018-08-28T06:33:50.934Z,20.76
2018-08-28T06:34:50.907Z,20.73
2018-08-28T06:35:50.913Z,20.78
2018-08-28T06:36:50.889Z,20.76
2018-08-28T06:37:50.874Z,20.79
2018-08-28T06:38:50.923Z,20.76
2018-08-28T06:39:50.853Z,20.79
2018-08-28T06:40:50.865Z,20.81
2018-08-28T06:41:50.838Z,20.78
2018-08-28T06:42:50.820Z,20.78
2018-08-28T06:43:50.851Z,20.78
2018-08-28T06:44:50.801Z,20.81
2018-08-28T06:45:50.807Z,20.87
2018-08-28T06:46:50.779Z,20.88
2018-08-28T06:47:50.770Z,20.88
2018-08-28T06:48:50.760Z,20.87
2018-08-28T06:49:50.747Z,20.90
2018-08-28T06:50:50.752Z,20.87
2018-08-28T06:51:50.727Z,20.94
2018-08-28T06:52:50.715Z,20.88
2018-08-28T06:53:50.709Z,20.88
2018-08-28T06:54:50.692Z,20.83
2018-08-28T06:55:50.706Z,20.88
2018-08-28T06:56:50.694Z,20.98
2018-08-28T06:57:50.962Z,20.96
2018-08-28T06:58:50.676Z,20.96
2018-08-28T06:59:50.637Z,20.98
2018-08-28T07:00:50.628Z,21.00
2018-08-28T07:01:50.633Z,21.06
2018-08-28T07:02:50.607Z,21.09
2018-08-28T07:03:50.640Z,20.98
2018-08-28T07:04:50.594Z,21.05
2018-08-28T07:05:50.664Z,21.08
2018-08-28T07:06:50.580Z,21.06
2018-08-28T07:07:50.612Z,21.05
2018-08-28T07:08:50.700Z,21.00
2018-08-28T07:09:50.532Z,20.98
2018-08-28T07:10:50.529Z,21.00
2018-08-28T07:11:50.534Z,21.01
2018-08-28T07:12:50.500Z,21.08
2018-08-28T07:13:50.984Z,21.09
2018-08-28T07:14:50.524Z,21.06
2018-08-28T07:15:50.474Z,21.09
2018-08-28T07:16:50.831Z,21.12
2018-08-28T07:17:50.445Z,21.11
2018-08-28T07:18:50.539Z,21.06
2018-08-28T07:19:50.423Z,20.97
2018-08-28T07:20:50.413Z,21.06
2018-08-28T07:21:50.419Z,21.06
2018-08-28T07:22:50.393Z,20.97
2018-08-28T07:23:50.380Z,21.06
2018-08-28T07:24:50.392Z,20.97
2018-08-28T07:25:50.830Z,21.06
2018-08-28T07:26:50.499Z,21.00
2018-08-28T07:27:50.430Z,21.01
2018-08-28T07:28:50.329Z,20.97
2018-08-28T07:29:50.318Z,21.12
2018-08-28T07:30:50.305Z,21.11
2018-08-28T07:31:50.460Z,21.11
2018-08-28T07:32:50.952Z,21.13
2018-08-28T07:33:50.276Z,21.15
2018-08-28T07:34:50.267Z,21.13
2018-08-28T07:35:54.396Z,21.13
2018-08-28T07:36:50.265Z,21.13
2018-08-28T07:37:50.247Z,21.13
2018-08-28T07:38:50.230Z,21.09
2018-08-28T07:39:50.210Z,21.15
2018-08-28T07:40:50.205Z,21.15
2018-08-28T07:41:51.102Z,21.11
2018-08-28T07:42:50.211Z,21.13
2018-08-28T07:43:50.169Z,21.15
2018-08-28T07:44:50.170Z,21.15
2018-08-28T07:45:50.148Z,21.09
2018-08-28T07:46:50.184Z,21.13
2018-08-28T07:47:50.126Z,21.19
2018-08-28T07:48:50.133Z,21.15
2018-08-28T07:49:50.110Z,21.12
2018-08-28T07:50:50.093Z,21.21
2018-08-28T07:51:50.100Z,21.13
2018-08-28T07:52:50.073Z,21.13
2018-08-28T07:53:50.097Z,21.08
2018-08-28T07:54:50.053Z,21.16
2018-08-28T07:55:50.044Z,21.26
2018-08-28T07:56:50.068Z,21.21
2018-08-28T07:57:50.018Z,21.31
2018-08-28T07:58:50.008Z,21.28
2018-08-28T07:59:50.058Z,21.22
2018-08-28T08:00:49.994Z,21.30
2018-08-28T08:01:49.994Z,21.28
2018-08-28T08:02:49.963Z,21.34
2018-08-28T08:03:49.957Z,21.31
2018-08-28T08:04:50.685Z,21.31
2018-08-28T08:05:49.942Z,21.31
2018-08-28T08:06:49.952Z,21.36
2018-08-28T08:07:49.910Z,21.34
2018-08-28T08:08:49.897Z,21.34
2018-08-28T08:09:49.886Z,21.42
2018-08-28T08:10:49.876Z,21.36
2018-08-28T08:11:50.766Z,21.36
2018-08-28T08:12:49.871Z,21.36
2018-08-28T08:13:50.128Z,21.34
2018-08-28T08:14:49.832Z,21.36
2018-08-28T08:15:49.820Z,21.37
2018-08-28T08:16:50.163Z,21.38
2018-08-28T08:17:49.805Z,21.45
2018-08-28T08:18:49.789Z,21.36
2018-08-28T08:19:49.776Z,21.37
2018-08-28T08:20:49.768Z,21.38
2018-08-28T08:21:49.774Z,21.36
2018-08-28T08:22:49.745Z,21.36
2018-08-28T08:23:49.738Z,21.37
2018-08-28T08:24:49.725Z,21.37
2018-08-28T08:25:49.709Z,21.46
2018-08-28T08:26:49.716Z,21.43
2018-08-28T08:27:49.709Z,21.43
2018-08-28T08:28:49.681Z,21.38
2018-08-28T08:29:49.674Z,21.38
2018-08-28T08:30:49.654Z,21.45
2018-08-28T08:31:49.645Z,21.42
2018-08-28T08:32:49.813Z,21.46
2018-08-28T08:33:50.749Z,21.49
2018-08-28T08:34:50.768Z,21.48
2018-08-28T08:35:49.600Z,21.52
2018-08-28T08:36:49.586Z,21.48
2018-08-28T08:37:50.818Z,21.49
2018-08-28T08:38:49.566Z,21.51
2018-08-28T08:39:49.556Z,21.52
2018-08-28T08:40:49.555Z,21.52
2018-08-28T08:41:49.567Z,21.53
2018-08-28T08:42:49.539Z,21.56
2018-08-28T08:43:49.511Z,21.59
2018-08-28T08:44:49.500Z,21.55
2018-08-28T08:45:49.491Z,21.53
2018-08-28T08:46:49.483Z,21.56
2018-08-28T08:47:49.483Z,21.64
2018-08-28T08:48:49.460Z,21.56
2018-08-28T08:49:49.446Z,21.61
2018-08-28T08:50:49.433Z,21.66
2018-08-28T08:51:49.445Z,21.63
2018-08-28T08:52:49.437Z,21.67
2018-08-28T08:53:49.399Z,21.63
2018-08-28T08:54:49.434Z,21.59
2018-08-28T08:55:51.253Z,21.61
2018-08-28T08:56:49.375Z,21.68
2018-08-28T08:57:52.203Z,21.68
2018-08-28T08:58:49.347Z,21.67
2018-08-28T08:59:49.338Z,21.75
2018-08-28T09:00:49.321Z,21.74
2018-08-28T09:01:49.312Z,21.73
2018-08-28T09:02:49.318Z,21.82
2018-08-28T09:03:49.290Z,21.83
2018-08-28T09:04:49.280Z,21.81
2018-08-28T09:05:51.384Z,21.74
2018-08-28T09:06:50.031Z,21.79
2018-08-28T09:07:49.277Z,21.81
2018-08-28T09:08:49.244Z,21.86
2018-08-28T09:09:49.380Z,21.79
2018-08-28T09:10:49.216Z,21.82
2018-08-28T09:11:49.203Z,21.82
2018-08-28T09:12:51.717Z,21.83
2018-08-28T09:13:49.189Z,21.86
2018-08-28T09:14:49.170Z,21.91
2018-08-28T09:15:49.158Z,21.85
2018-08-28T09:16:49.149Z,21.83
2018-08-28T09:17:49.174Z,21.91
2018-08-28T09:18:49.127Z,21.91
2018-08-28T09:19:49.129Z,21.96
2018-08-28T09:20:49.106Z,21.91
2018-08-28T09:21:49.099Z,22.02
2018-08-28T09:22:49.101Z,22.02
2018-08-28T09:23:49.082Z,22.01
2018-08-28T09:24:49.069Z,22.02
2018-08-28T09:25:49.050Z,22.08
2018-08-28T09:26:49.040Z,22.06
2018-08-28T09:27:49.045Z,22.09
2018-08-28T09:28:49.047Z,22.15
2018-08-28T09:29:49.007Z,22.17
2018-08-28T09:30:49.007Z,22.06
2018-08-28T09:31:49.053Z,22.12
2018-08-28T09:32:48.991Z,22.27
2018-08-28T09:33:48.967Z,22.20
2018-08-28T09:34:48.956Z,22.24
2018-08-28T09:35:48.945Z,22.33
2018-08-28T09:36:48.933Z,22.30
2018-08-28T09:37:48.935Z,22.29
2018-08-28T09:38:48.951Z,22.21
2018-08-28T09:39:48.896Z,22.33
2018-08-28T09:40:48.886Z,22.36
2018-08-28T09:41:48.882Z,22.31
2018-08-28T09:42:48.901Z,22.27
2018-08-28T09:43:48.885Z,22.35
2018-08-28T09:44:48.857Z,22.29
2018-08-28T09:45:48.830Z,22.33
2018-08-28T09:46:48.894Z,22.39
2018-08-28T09:47:48.859Z,22.42
2018-08-28T09:48:48.798Z,22.30
2018-08-28T09:49:48.789Z,22.38
2018-08-28T09:50:48.998Z,22.41
2018-08-28T09:51:48.765Z,22.44
2018-08-28T09:52:48.768Z,22.33
2018-08-28T09:53:48.743Z,22.49
2018-08-28T09:54:48.729Z,22.29
2018-08-28T09:55:48.718Z,22.29
2018-08-28T09:56:48.713Z,22.36
2018-08-28T09:57:48.699Z,22.35
2018-08-28T09:58:48.705Z,22.33
2018-08-28T09:59:48.676Z,22.39
2018-08-28T10:00:48.664Z,22.39
2018-08-28T10:01:48.653Z,22.39
2018-08-28T10:02:48.643Z,22.39
2018-08-28T10:03:48.646Z,22.39
2018-08-28T10:04:48.682Z,22.45
2018-08-28T10:05:48.610Z,22.39
2018-08-28T10:06:48.600Z,22.44
2018-08-28T10:07:48.637Z,22.45
2018-08-28T10:08:48.593Z,22.38
2018-08-28T10:09:48.574Z,22.41
2018-08-28T10:10:48.618Z,22.41
2018-08-28T10:11:48.544Z,22.42
2018-08-28T10:12:48.531Z,22.39
2018-08-28T10:13:48.538Z,22.45
2018-08-28T10:14:48.513Z,22.46
2018-08-28T10:15:48.502Z,22.54
2018-08-28T10:16:48.485Z,22.49
2018-08-28T10:17:48.483Z,22.45
2018-08-28T10:18:48.486Z,22.39
2018-08-28T10:19:48.454Z,22.45
2018-08-28T10:20:48.446Z,22.39
2018-08-28T10:21:48.441Z,22.39
2018-08-28T10:22:48.471Z,22.39
2018-08-28T10:23:48.427Z,22.44
2018-08-28T10:24:48.409Z,22.46
2018-08-28T10:25:48.386Z,22.45
2018-08-28T10:26:48.373Z,22.45
2018-08-28T10:27:48.364Z,22.35
2018-08-28T10:28:48.367Z,22.44
2018-08-28T10:29:48.352Z,22.39
2018-08-28T10:30:48.333Z,22.42
2018-08-28T10:31:48.320Z,22.45
2018-08-28T10:32:48.307Z,22.49
2018-08-28T10:33:48.312Z,22.56
2018-08-28T10:34:48.285Z,22.56
2018-08-28T10:35:48.282Z,22.54
2018-08-28T10:36:48.265Z,22.60
2018-08-28T10:37:48.251Z,22.63
2018-08-28T10:38:48.255Z,22.60
2018-08-28T10:39:48.229Z,22.63
2018-08-28T10:40:48.218Z,22.61
2018-08-28T10:41:48.206Z,22.61
2018-08-28T10:42:48.206Z,22.63
2018-08-28T10:43:48.205Z,22.66
2018-08-28T10:44:48.172Z,22.70
2018-08-28T10:45:48.162Z,22.74
2018-08-28T10:46:48.385Z,22.75
2018-08-28T10:47:48.148Z,22.72
2018-08-28T10:48:48.155Z,22.79
2018-08-28T10:49:48.117Z,22.66
2018-08-28T10:50:48.105Z,22.78
2018-08-28T10:51:48.096Z,22.72
2018-08-28T10:52:48.092Z,22.70
2018-08-28T10:53:48.089Z,22.75
2018-08-28T10:54:48.060Z,22.85
2018-08-28T10:55:48.049Z,22.89
2018-08-28T10:56:48.038Z,22.85
2018-08-28T10:57:48.031Z,22.91
2018-08-28T10:58:48.139Z,22.91
2018-08-28T10:59:48.006Z,22.85
2018-08-28T11:00:47.992Z,22.94
2018-08-28T11:01:47.981Z,22.94
2018-08-28T11:02:47.974Z,22.91
2018-08-28T11:03:47.974Z,22.96
2018-08-28T11:04:47.951Z,22.84
2018-08-28T11:05:47.935Z,22.96
2018-08-28T11:06:47.926Z,22.93
2018-08-28T11:07:47.913Z,22.96
2018-08-28T11:08:47.991Z,22.94
2018-08-28T11:09:47.890Z,22.93
2018-08-28T11:10:47.879Z,23.01
2018-08-28T11:11:47.867Z,22.99
2018-08-28T11:12:47.856Z,23.01
2018-08-28T11:13:47.874Z,23.06
2018-08-28T11:14:47.835Z,22.94
2018-08-28T11:15:47.834Z,23.01
2018-08-28T11:16:47.814Z,23.03
2018-08-28T11:17:47.801Z,22.93
2018-08-28T11:18:47.808Z,23.06
2018-08-28T11:19:47.789Z,23.03
2018-08-28T11:20:47.769Z,22.97
2018-08-28T11:21:47.756Z,23.07
2018-08-28T11:22:47.799Z,23.09
2018-08-28T11:23:47.761Z,23.12
2018-08-28T11:24:47.721Z,23.04
2018-08-28T11:25:47.709Z,23.15
2018-08-28T11:26:47.703Z,23.14
2018-08-28T11:27:47.688Z,23.12
2018-08-28T11:28:47.676Z,23.16
2018-08-28T11:29:47.684Z,23.21
2018-08-28T11:30:47.659Z,23.22
2018-08-28T11:31:47.642Z,23.21
2018-08-28T11:32:47.635Z,23.29
2018-08-28T11:33:47.621Z,23.26
2018-08-28T11:34:47.630Z,23.29
2018-08-28T11:35:47.630Z,23.35
2018-08-28T11:36:47.587Z,23.35
2018-08-28T11:37:47.580Z,23.32
2018-08-28T11:38:47.570Z,23.32
2018-08-28T11:39:47.568Z,23.29
2018-08-28T11:40:47.544Z,23.35
2018-08-28T11:41:47.538Z,23.37
2018-08-28T11:42:47.520Z,23.32
2018-08-28T11:43:47.510Z,23.38
2018-08-28T11:44:47.514Z,23.41
2018-08-28T11:45:47.487Z,23.41
2018-08-28T11:46:47.476Z,23.37
2018-08-28T11:47:47.465Z,23.44
2018-08-28T11:48:47.461Z,23.42
2018-08-28T11:49:47.469Z,23.50
2018-08-28T11:50:47.432Z,23.52
2018-08-28T11:51:47.430Z,23.50
2018-08-28T11:52:47.414Z,23.52
2018-08-28T11:53:47.405Z,23.53
2018-08-28T11:54:47.406Z,23.56
2018-08-28T11:55:47.378Z,23.54
2018-08-28T11:56:47.369Z,23.63
2018-08-28T11:57:47.357Z,23.64
2018-08-28T11:58:47.349Z,23.63
2018-08-28T11:59:47.349Z,23.74
2018-08-28T12:00:47.324Z,23.81
2018-08-28T12:01:47.314Z,23.77
2018-08-28T12:02:47.302Z,23.72
2018-08-28T12:03:47.290Z,23.81
2018-08-28T12:04:47.303Z,23.87
2018-08-28T12:05:47.275Z,23.96
2018-08-28T12:06:47.282Z,24.02
2018-08-28T12:07:47.291Z,24.09
2018-08-28T12:08:47.235Z,24.06
2018-08-28T12:09:47.241Z,24.14
2018-08-28T12:10:47.216Z,24.23
2018-08-28T12:11:47.688Z,24.29
2018-08-28T12:12:47.310Z,24.24
2018-08-28T12:13:47.181Z,24.37
2018-08-28T12:14:47.193Z,24.23
2018-08-28T12:15:47.161Z,24.19
2018-08-28T12:16:47.157Z,24.12
2018-08-28T12:17:47.140Z,24.18
2018-08-28T12:18:47.127Z,24.16
2018-08-28T12:19:47.132Z,24.41
2018-08-28T12:20:47.195Z,24.59
2018-08-28T12:21:47.102Z,24.82
2018-08-28T12:22:47.084Z,24.87
2018-08-28T12:23:47.073Z,25.07
2018-08-28T12:24:47.079Z,25.08
2018-08-28T12:25:47.056Z,25.20
2018-08-28T12:26:47.126Z,25.31
2018-08-28T12:27:47.032Z,25.39
2018-08-28T12:28:47.022Z,25.48
2018-08-28T12:29:47.090Z,25.53
2018-08-28T12:30:46.998Z,25.71
2018-08-28T12:31:46.987Z,25.75
2018-08-28T12:32:47.012Z,25.89
2018-08-28T12:33:46.970Z,25.98
2018-08-28T12:34:46.977Z,26.00
2018-08-28T12:35:46.945Z,26.01
2018-08-28T12:36:46.991Z,26.21
2018-08-28T12:37:46.929Z,26.23
2018-08-28T12:38:46.918Z,26.29
2018-08-28T12:39:46.921Z,26.34
2018-08-28T12:40:46.893Z,26.34
2018-08-28T12:41:46.879Z,25.94
2018-08-28T12:42:46.873Z,25.79
2018-08-28T12:43:46.944Z,25.61
2018-08-28T12:44:46.866Z,25.83
2018-08-28T12:45:46.836Z,25.97
2018-08-28T12:46:46.827Z,25.75
2018-08-28T12:47:46.814Z,25.72
2018-08-28T12:48:46.804Z,25.49
2018-08-28T12:49:46.822Z,25.45
2018-08-28T12:50:46.797Z,25.35
2018-08-28T12:51:46.774Z,25.19
2018-08-28T12:52:46.762Z,25.09